Time;durP1;ratioP1;P1;durP2;ratioP2;P2;SDS_P1;SDS_P2;PMS_P1;PMS_P2;Temp;Humidity;BMP_temperature;BMP_pressure;BME280_temperature;BME280_humidity;BME280_pressure;Samples;Min_cycle;Max_cycle;Signal;HPM_P1;HPM_P2
2021/03/07 00:00:34;;;;;;;11.43;6.47;;;2.20;74.00;;;;;;5038143;28;20484;-78
2021/03/07 00:02:59;;;;;;;11.63;6.50;;;2.20;74.10;;;;;;5054656;28;20465;-79
2021/03/07 00:05:25;;;;;;;11.88;6.75;;;2.20;74.20;;;;;;5038046;28;20029;-79
2021/03/07 00:07:52;;;;;;;10.60;5.90;;;2.20;74.50;;;;;;5054626;28;20043;-78
2021/03/07 00:10:18;;;;;;;11.23;6.53;;;2.20;74.60;;;;;;5037531;28;20033;-78
2021/03/07 00:12:45;;;;;;;8.90;5.90;;;2.10;74.70;;;;;;5054379;28;20450;-78
2021/03/07 00:15:13;;;;;;;9.07;6.45;;;2.10;74.70;;;;;;5037425;28;20800;-78
2021/03/07 00:17:40;;;;;;;11.25;6.72;;;2.10;74.70;;;;;;5037955;28;20031;-78
2021/03/07 00:20:11;;;;;;;10.02;6.35;;;2.10;74.80;;;;;;5055510;28;20025;-79
2021/03/07 00:22:38;;;;;;;11.50;6.15;;;2.10;74.90;;;;;;5054387;28;20600;-78
2021/03/07 00:25:06;;;;;;;11.68;6.70;;;2.10;75.00;;;;;;5054504;28;20025;-79
2021/03/07 00:27:32;;;;;;;12.00;6.87;;;2.10;75.30;;;;;;5054611;28;20029;-79
2021/03/07 00:29:57;;;;;;;8.43;6.28;;;2.00;75.30;;;;;;5055611;28;20170;-79
2021/03/07 00:32:23;;;;;;;10.93;6.40;;;2.00;75.50;;;;;;5054592;28;20389;-78
2021/03/07 00:34:48;;;;;;;9.65;5.88;;;2.00;75.50;;;;;;5054212;28;20021;-78
2021/03/07 00:37:14;;;;;;;10.73;6.30;;;2.00;75.70;;;;;;5054100;28;20028;-78
2021/03/07 00:39:40;;;;;;;11.07;6.43;;;2.00;75.80;;;;;;5037542;28;20137;-79
2021/03/07 00:42:06;;;;;;;12.30;6.30;;;1.90;75.90;;;;;;5037256;28;20037;-78
2021/03/07 00:44:31;;;;;;;14.95;6.45;;;1.90;76.10;;;;;;5036639;28;20040;-79
2021/03/07 00:46:58;;;;;;;11.23;6.30;;;1.90;76.20;;;;;;5037371;28;20029;-79
2021/03/07 00:49:27;;;;;;;10.55;6.50;;;1.90;76.30;;;;;;5055415;28;20469;-79
2021/03/07 00:51:54;;;;;;;10.20;6.10;;;1.80;76.50;;;;;;5053709;28;20040;-79
2021/03/07 00:54:20;;;;;;;9.98;6.40;;;1.80;76.60;;;;;;5054044;28;20029;-79
2021/03/07 00:56:45;;;;;;;9.68;6.00;;;1.80;76.80;;;;;;5053595;28;20547;-79
2021/03/07 00:59:12;;;;;;;8.05;5.65;;;1.80;77.40;;;;;;5020202;28;20021;-79
2021/03/07 01:01:37;;;;;;;12.00;6.57;;;1.80;76.90;;;;;;5053572;28;20029;-79
2021/03/07 01:04:04;;;;;;;14.65;6.13;;;1.80;77.00;;;;;;5054493;28;20090;-79
2021/03/07 01:06:29;;;;;;;10.98;6.65;;;1.80;77.10;;;;;;5053259;28;20044;-79
2021/03/07 01:08:55;;;;;;;9.55;6.10;;;1.70;77.10;;;;;;5053062;28;20029;-79
2021/03/07 01:11:21;;;;;;;11.98;6.70;;;1.70;77.20;;;;;;5033197;28;20136;-79
2021/03/07 01:13:46;;;;;;;12.35;6.95;;;1.70;77.40;;;;;;5053090;28;20029;-79
2021/03/07 01:16:12;;;;;;;10.15;6.80;;;1.70;77.60;;;;;;5020151;28;20464;-79
2021/03/07 01:18:38;;;;;;;13.07;6.80;;;1.70;77.70;;;;;;5053450;28;20028;-79
2021/03/07 01:21:04;;;;;;;11.05;6.65;;;1.70;77.80;;;;;;5036830;28;20032;-79
2021/03/07 01:23:33;;;;;;;13.45;6.85;;;1.70;77.80;;;;;;5053392;28;20108;-79
2021/03/07 01:25:59;;;;;;;10.52;6.07;;;1.70;77.90;;;;;;5053259;28;20095;-79
2021/03/07 01:28:25;;;;;;;10.40;6.75;;;1.60;77.80;;;;;;5054415;28;20021;-79
2021/03/07 01:30:51;;;;;;;11.02;7.10;;;1.60;77.90;;;;;;5054579;28;20013;-79
2021/03/07 01:33:16;;;;;;;11.68;6.85;;;1.60;78.20;;;;;;5053006;28;20025;-79
2021/03/07 01:35:42;;;;;;;10.60;6.50;;;1.60;78.30;;;;;;5020034;28;20025;-79
2021/03/07 01:38:08;;;;;;;9.10;6.28;;;1.60;78.40;;;;;;5052741;28;20120;-79
2021/03/07 01:40:56;;;;;;;12.70;7.43;;;1.60;78.40;;;;;;5052771;28;20029;-79
2021/03/07 01:43:22;;;;;;;11.85;7.22;;;1.50;78.50;;;;;;5052250;28;20079;-79
2021/03/07 01:45:49;;;;;;;13.60;7.57;;;1.50;78.60;;;;;;5052988;28;20029;-79
2021/03/07 01:48:15;;;;;;;11.05;7.05;;;1.50;78.70;;;;;;5036320;28;20021;-79
2021/03/07 01:50:46;;;;;;;13.48;7.63;;;1.50;78.70;;;;;;5054279;28;20025;-79
2021/03/07 01:53:13;;;;;;;12.52;6.35;;;1.50;78.70;;;;;;5052806;28;20127;-79
2021/03/07 01:55:39;;;;;;;13.73;7.78;;;1.40;78.60;;;;;;5052763;28;20052;-79
2021/03/07 01:58:25;;;;;;;11.82;6.88;;;1.40;78.90;;;;;;5053080;28;20033;-79
2021/03/07 02:00:51;;;;;;;14.82;7.38;;;1.40;79.20;;;;;;5052709;28;20108;-79
2021/03/07 02:03:17;;;;;;;13.82;7.50;;;1.40;79.20;;;;;;5052763;28;20029;-79
2021/03/07 02:05:43;;;;;;;13.77;7.50;;;1.30;79.30;;;;;;5052466;28;20506;-79
2021/03/07 02:08:12;;;;;;;12.73;7.22;;;1.40;79.50;;;;;;5053877;28;20036;-79
2021/03/07 02:10:43;;;;;;;12.33;6.90;;;1.30;79.50;;;;;;5052634;28;20029;-79
2021/03/07 02:13:13;;;;;;;15.00;7.78;;;1.40;79.70;;;;;;5052548;28;20028;-79
2021/03/07 02:15:42;;;;;;;13.63;7.57;;;1.30;79.70;;;;;;5052296;28;20112;-79
2021/03/07 02:18:09;;;;;;;15.88;7.85;;;1.30;79.80;;;;;;5053717;28;20036;-79
2021/03/07 02:20:38;;;;;;;12.30;7.53;;;1.30;79.90;;;;;;5052226;28;20029;-79
2021/03/07 02:23:08;;;;;;;13.18;7.50;;;1.30;80.00;;;;;;5052135;28;20048;-79
2021/03/07 02:25:36;;;;;;;16.17;8.00;;;1.30;80.10;;;;;;5052345;28;20381;-79
2021/03/07 02:28:06;;;;;;;14.15;8.32;;;1.30;80.20;;;;;;5052153;28;20029;-79
2021/03/07 02:30:32;;;;;;;16.88;9.13;;;1.20;80.40;;;;;;5053008;28;20021;-79
2021/03/07 02:33:22;;;;;;;15.10;8.13;;;1.20;80.50;;;;;;5019141;28;20047;-79
2021/03/07 02:35:58;;;;;;;15.65;8.23;;;1.20;80.90;;;;;;5051924;28;20065;-79
2021/03/07 02:38:24;;;;;;;17.38;8.40;;;1.20;81.00;;;;;;5053187;28;20075;-79
2021/03/07 02:40:54;;;;;;;14.00;8.45;;;1.10;81.00;;;;;;5053149;28;20385;-78
2021/03/07 02:43:21;;;;;;;14.90;9.02;;;1.10;81.10;;;;;;5052854;28;20052;-79
2021/03/07 02:45:48;;;;;;;14.32;8.80;;;1.10;81.10;;;;;;5052963;28;20013;-79
2021/03/07 02:48:22;;;;;;;15.57;9.48;;;1.10;81.20;;;;;;5052944;28;20029;-79
2021/03/07 02:50:49;;;;;;;13.15;8.45;;;1.20;81.30;;;;;;5051267;28;20413;-79
2021/03/07 02:53:20;;;;;;;13.43;8.73;;;1.20;81.10;;;;;;5034760;28;20033;-79
2021/03/07 02:55:51;;;;;;;15.18;8.73;;;1.10;81.10;;;;;;5051029;28;20033;-79
2021/03/07 02:58:18;;;;;;;21.10;9.27;;;1.10;81.20;;;;;;5051689;28;20137;-79
2021/03/07 03:00:52;;;;;;;17.80;8.85;;;1.10;81.20;;;;;;5034394;28;20037;-79
2021/03/07 03:03:21;;;;;;;15.15;8.63;;;1.10;81.40;;;;;;5051281;28;20021;-79
2021/03/07 03:05:47;;;;;;;;;;;1.10;81.30;;;;;;5032740;28;20410;-79
2021/03/07 03:08:15;;;;;;;21.85;10.13;;;1.10;81.30;;;;;;5035775;28;19916;-79
2021/03/07 03:10:42;;;;;;;15.63;9.32;;;1.00;81.40;;;;;;5049028;28;20029;-79
2021/03/07 03:13:09;;;;;;;19.20;9.00;;;1.00;81.60;;;;;;5056781;28;20575;-79
2021/03/07 03:15:35;;;;;;;18.63;10.13;;;0.90;81.60;;;;;;5038308;28;20036;-79
2021/03/07 03:18:01;;;;;;;16.08;9.52;;;1.00;81.70;;;;;;5054956;28;20017;-79
2021/03/07 03:20:28;;;;;;;18.55;10.43;;;1.00;81.80;;;;;;5038392;28;20033;-79
2021/03/07 03:22:54;;;;;;;19.33;10.38;;;0.90;81.80;;;;;;5056746;28;20032;-79
2021/03/07 03:25:19;;;;;;;15.35;9.23;;;0.90;81.90;;;;;;5056246;28;20369;-79
2021/03/07 03:27:45;;;;;;;16.45;9.63;;;0.90;82.60;;;;;;5055458;28;20426;-79
2021/03/07 03:30:14;;;;;;;22.00;9.73;;;0.90;82.10;;;;;;5038651;28;20457;-79
2021/03/07 03:32:39;;;;;;;16.35;9.07;;;0.90;82.30;;;;;;5038371;28;20070;-79
2021/03/07 03:35:14;;;;;;;20.73;10.15;;;0.90;82.30;;;;;;5055020;28;20036;-79
2021/03/07 03:37:41;;;;;;;15.68;9.20;;;0.90;82.50;;;;;;5054629;28;20108;-79
2021/03/07 03:40:09;;;;;;;15.63;9.23;;;0.90;82.40;;;;;;5054768;28;20036;-79
2021/03/07 03:42:42;;;;;;;17.13;10.30;;;0.90;82.50;;;;;;5055147;28;20123;-80
2021/03/07 03:45:10;;;;;;;14.80;9.43;;;0.90;82.40;;;;;;5055092;28;20025;-79
2021/03/07 03:47:45;;;;;;;18.60;10.15;;;0.90;82.30;;;;;;5038513;28;20090;-79
2021/03/07 03:50:12;;;;;;;18.45;10.18;;;0.90;82.40;;;;;;5054997;28;20029;-79
2021/03/07 03:52:38;;;;;;;23.30;11.02;;;0.90;82.30;;;;;;5038563;28;20037;-79
2021/03/07 03:55:05;;;;;;;20.25;10.68;;;0.90;82.40;;;;;;5054899;28;20416;-79
2021/03/07 03:57:33;;;;;;;17.40;9.93;;;0.90;82.60;;;;;;5054764;28;20036;-79
2021/03/07 04:00:09;;;;;;;16.85;10.80;;;0.80;82.70;;;;;;5054808;28;20504;-79
2021/03/07 04:02:36;;;;;;;16.02;9.73;;;0.80;82.80;;;;;;5088526;28;20547;-79
2021/03/07 04:05:06;;;;;;;16.58;9.30;;;0.80;82.90;;;;;;5037953;28;20036;-78
2021/03/07 04:07:31;;;;;;;;;;;0.80;83.00;;;;;;5056626;28;20032;-79
2021/03/07 04:09:59;;;;;;;17.20;10.13;;;0.70;83.00;;;;;;5054431;28;19913;-79
2021/03/07 04:12:25;;;;;;;13.48;8.95;;;0.70;83.20;;;;;;5054377;28;20021;-79
2021/03/07 04:14:56;;;;;;;21.35;10.70;;;0.70;83.20;;;;;;5055002;28;20029;-79
2021/03/07 04:17:26;;;;;;;14.88;9.25;;;0.70;83.30;;;;;;5053858;28;20040;-79
2021/03/07 04:19:52;;;;;;;15.35;9.95;;;0.70;83.30;;;;;;5052715;28;20029;-79
2021/03/07 04:22:19;;;;;;;15.50;9.02;;;0.70;83.30;;;;;;5038001;28;20469;-79
2021/03/07 04:24:45;;;;;;;16.05;9.68;;;0.70;83.30;;;;;;5054562;28;20548;-79
2021/03/07 04:27:12;;;;;;;14.93;9.18;;;0.60;83.30;;;;;;5054450;28;20037;-79
2021/03/07 04:29:38;;;;;;;20.77;11.00;;;0.60;83.40;;;;;;5037963;28;20035;-79
2021/03/07 04:32:05;;;;;;;18.23;9.90;;;0.60;83.40;;;;;;5034403;28;20401;-79
2021/03/07 04:34:33;;;;;;;16.70;10.05;;;0.60;83.40;;;;;;5042177;28;20076;-79
2021/03/07 04:37:00;;;;;;;21.75;9.95;;;0.60;83.30;;;;;;5055319;28;20481;-79
2021/03/07 04:39:26;;;;;;;20.83;11.40;;;0.60;83.20;;;;;;5054371;28;20053;-79
2021/03/07 04:41:52;;;;;;;21.13;10.70;;;0.60;83.10;;;;;;5054139;28;20048;-79
2021/03/07 04:44:18;;;;;;;17.48;9.98;;;0.60;83.10;;;;;;5053649;28;20057;-78
2021/03/07 04:46:44;;;;;;;15.55;8.90;;;0.60;83.10;;;;;;5037656;28;20128;-79
2021/03/07 04:49:09;;;;;;;14.80;9.30;;;0.60;83.20;;;;;;5037588;28;20033;-79
2021/03/07 04:51:35;;;;;;;14.43;10.00;;;0.50;83.20;;;;;;5037576;28;20036;-79
2021/03/07 04:54:01;;;;;;;17.25;10.25;;;0.50;83.30;;;;;;5020861;28;20537;-80
2021/03/07 04:56:28;;;;;;;14.65;9.65;;;0.40;83.30;;;;;;5053176;28;20053;-80
2021/03/07 04:58:53;;;;;;;17.33;9.48;;;0.50;83.40;;;;;;5055360;28;20025;-80
2021/03/07 05:01:19;;;;;;;17.20;8.55;;;0.50;83.30;;;;;;5020724;28;20021;-79
2021/03/07 05:03:45;;;;;;;17.17;9.73;;;0.50;83.30;;;;;;5053983;28;20111;-79
2021/03/07 05:06:12;;;;;;;22.90;10.73;;;0.50;83.30;;;;;;5053593;28;20031;-79
2021/03/07 05:08:38;;;;;;;19.63;9.75;;;0.50;83.30;;;;;;5053796;28;20032;-79
2021/03/07 05:11:04;;;;;;;19.17;10.77;;;0.50;83.30;;;;;;5053637;28;20108;-79
2021/03/07 05:13:29;;;;;;;21.45;11.00;;;0.50;83.30;;;;;;5037138;28;20052;-79
2021/03/07 05:15:55;;;;;;;20.35;10.40;;;0.50;83.30;;;;;;5053283;28;20103;-79
2021/03/07 05:18:21;;;;;;;16.73;9.63;;;0.50;83.40;;;;;;5036450;28;20035;-79
2021/03/07 05:20:46;;;;;;;19.38;9.50;;;0.50;83.40;;;;;;5036795;28;20029;-79
2021/03/07 05:23:12;;;;;;;16.20;9.68;;;0.60;83.40;;;;;;5053391;28;20465;-79
2021/03/07 05:25:38;;;;;;;23.33;11.18;;;0.50;83.40;;;;;;5052937;28;20044;-79
2021/03/07 05:28:04;;;;;;;21.77;10.48;;;0.60;83.40;;;;;;5036721;28;20037;-79
2021/03/07 05:30:30;;;;;;;15.95;10.02;;;0.60;83.50;;;;;;5036155;28;20489;-79
2021/03/07 05:32:55;;;;;;;21.77;10.57;;;0.60;83.60;;;;;;5052976;28;20137;-79
2021/03/07 05:35:22;;;;;;;21.10;11.73;;;0.60;83.70;;;;;;5036529;28;20029;-79
2021/03/07 05:37:48;;;;;;;30.95;13.15;;;0.60;84.40;;;;;;5052947;28;20525;-79
2021/03/07 05:40:14;;;;;;;28.80;12.27;;;0.60;83.90;;;;;;5036529;28;20116;-79
2021/03/07 05:42:39;;;;;;;22.77;11.35;;;0.60;84.10;;;;;;5052590;28;20029;-79
2021/03/07 05:45:06;;;;;;;33.22;12.63;;;0.60;84.20;;;;;;5052716;28;20028;-79
2021/03/07 05:47:32;;;;;;;29.10;13.23;;;0.70;84.40;;;;;;5052444;28;20056;-79
2021/03/07 05:49:57;;;;;;;35.65;13.95;;;0.70;84.50;;;;;;5053918;28;20053;-79
2021/03/07 05:52:24;;;;;;;45.70;13.20;;;0.70;84.60;;;;;;5019931;28;20055;-79
2021/03/07 05:54:53;;;;;;;84.95;13.20;;;0.70;84.60;;;;;;5052133;28;20029;-79
2021/03/07 05:57:23;;;;;;;50.50;11.80;;;0.70;84.60;;;;;;5051097;28;20440;-79
2021/03/07 05:59:50;;;;;;;72.03;11.98;;;0.70;84.70;;;;;;5051560;28;20029;-79
2021/03/07 06:02:16;;;;;;;80.05;11.93;;;0.70;84.80;;;;;;5018424;28;20024;-79
2021/03/07 06:04:43;;;;;;;77.25;12.05;;;0.60;85.00;;;;;;5051965;28;20126;-79
2021/03/07 06:07:10;;;;;;;80.68;11.82;;;0.60;85.40;;;;;;5035330;28;20102;-79
2021/03/07 06:09:36;;;;;;;70.43;11.18;;;0.60;85.70;;;;;;5051918;28;20025;-79
2021/03/07 06:12:06;;;;;;;59.08;12.48;;;0.60;85.80;;;;;;5051548;28;20086;-79
2021/03/07 06:14:33;;;;;;;319.48;20.13;;;0.60;85.80;;;;;;5052269;28;20436;-79
2021/03/07 06:17:08;;;;;;;64.07;10.82;;;0.60;85.80;;;;;;5052187;28;20124;-79
2021/03/07 06:19:59;;;;;;;79.47;11.73;;;0.50;86.00;;;;;;5052546;28;20109;-79
2021/03/07 06:22:27;;;;;;;76.35;12.65;;;0.50;86.20;;;;;;5052583;28;20086;-79
2021/03/07 06:24:53;;;;;;;64.57;12.60;;;0.40;86.20;;;;;;5035570;28;20029;-79
2021/03/07 06:27:19;;;;;;;49.80;10.73;;;0.30;86.50;;;;;;5018947;28;20044;-79
2021/03/07 06:30:01;;;;;;;64.50;11.10;;;0.30;86.60;;;;;;5052381;28;20090;-79
2021/03/07 06:32:36;;;;;;;205.20;15.07;;;0.30;86.80;;;;;;5065485;28;20461;-79
2021/03/07 06:35:05;;;;;;;158.10;14.25;;;0.30;86.80;;;;;;5040197;28;20024;-79
2021/03/07 06:37:30;;;;;;;114.97;12.23;;;0.30;86.90;;;;;;5051518;28;20056;-79
2021/03/07 06:39:56;;;;;;;131.93;11.60;;;0.30;87.10;;;;;;5034262;28;20303;-79
2021/03/07 06:42:22;;;;;;;43.50;9.98;;;0.30;87.30;;;;;;5051015;28;20051;-79
2021/03/07 06:44:56;;;;;;;124.38;13.00;;;0.30;87.30;;;;;;5051448;28;20041;-79
2021/03/07 06:47:23;;;;;;;226.90;16.98;;;0.30;88.10;;;;;;5052015;28;20029;-79
2021/03/07 06:50:05;;;;;;;80.25;12.57;;;0.30;87.90;;;;;;5035491;28;20452;-79
2021/03/07 06:52:30;;;;;;;54.70;11.57;;;0.30;88.00;;;;;;5037451;28;20374;-79
2021/03/07 06:55:12;;;;;;;68.85;11.57;;;0.30;87.90;;;;;;5018538;28;20033;-79
2021/03/07 06:57:38;;;;;;;96.85;13.65;;;0.30;87.80;;;;;;5051899;28;20048;-79
2021/03/07 07:00:07;;;;;;;93.63;13.70;;;0.30;87.60;;;;;;5035066;28;20029;-79
2021/03/07 07:02:33;;;;;;;;;;;0.30;87.80;;;;;;5019346;28;20036;-79
2021/03/07 07:04:59;;;;;;;56.38;12.48;;;0.30;87.90;;;;;;5052884;28;19904;-79
2021/03/07 07:07:28;;;;;;;38.65;12.32;;;0.30;87.80;;;;;;5035408;28;20037;-79
2021/03/07 07:10:05;;;;;;;206.50;18.85;;;0.40;88.10;;;;;;5052759;28;20059;-79
2021/03/07 07:12:31;;;;;;;86.00;14.30;;;0.40;88.10;;;;;;5051719;28;20397;-79
2021/03/07 07:15:08;;;;;;;51.55;13.38;;;0.40;88.20;;;;;;5051691;28;20036;-79
2021/03/07 07:17:34;;;;;;;95.13;14.60;;;0.30;88.40;;;;;;5051490;28;20025;-79
2021/03/07 07:20:00;;;;;;;86.97;15.15;;;0.40;88.50;;;;;;5034853;28;20098;-79
2021/03/07 07:22:26;;;;;;;82.45;14.00;;;0.40;88.70;;;;;;5052760;28;20025;-79
2021/03/07 07:24:52;;;;;;;71.55;13.30;;;0.40;89.40;;;;;;5035085;28;20079;-79
2021/03/07 07:27:19;;;;;;;83.60;15.20;;;0.50;88.70;;;;;;5035096;28;20033;-79
2021/03/07 07:29:44;;;;;;;71.13;14.85;;;0.50;88.80;;;;;;5051535;28;20095;-79
2021/03/07 07:32:28;;;;;;;43.28;12.85;;;0.50;88.90;;;;;;5018187;28;20037;-79
2021/03/07 07:35:04;;;;;;;63.38;17.00;;;0.50;88.90;;;;;;5051156;28;20029;-79
2021/03/07 07:37:47;;;;;;;109.32;18.98;;;0.60;88.90;;;;;;5051176;28;20025;-79
2021/03/07 07:40:13;;;;;;;75.10;16.35;;;0.70;88.90;;;;;;5051187;28;20505;-79
2021/03/07 07:42:39;;;;;;;58.50;15.30;;;0.80;88.80;;;;;;5051659;28;20087;-79
2021/03/07 07:45:13;;;;;;;46.55;19.15;;;0.80;88.80;;;;;;5050893;28;20129;-80
2021/03/07 07:47:45;;;;;;;45.25;17.98;;;0.90;88.80;;;;;;5051491;28;20021;-80
2021/03/07 07:52:56;;;;;;;61.15;18.65;;;1.10;88.70;;;;;;5034362;28;20056;-79
2021/03/07 07:55:48;;;;;;;149.30;23.95;;;1.10;88.50;;;;;;5046298;28;20021;-79
2021/03/07 07:58:36;;;;;;;61.08;21.45;;;1.20;88.50;;;;;;5054443;28;20477;-79
2021/03/07 08:01:09;;;;;;;56.30;15.65;;;1.20;88.50;;;;;;5054507;28;20040;-79
2021/03/07 08:03:43;;;;;;;141.05;15.73;;;1.20;88.40;;;;;;5055995;28;20429;-79
2021/03/07 08:06:13;;;;;;;60.13;12.20;;;1.30;88.30;;;;;;5054454;28;20505;-79
2021/03/07 08:08:44;;;;;;;72.63;16.10;;;1.30;88.00;;;;;;5034686;28;20021;-79
2021/03/07 08:11:19;;;;;;;131.90;16.00;;;1.30;88.20;;;;;;5044443;28;20021;-79
2021/03/07 08:13:52;;;;;;;114.00;16.63;;;1.30;88.20;;;;;;5054302;28;20051;-79
2021/03/07 08:16:43;;;;;;;216.80;20.13;;;1.20;88.40;;;;;;5054151;28;20021;-79
2021/03/07 08:19:13;;;;;;;152.25;17.95;;;1.30;88.80;;;;;;5054489;28;20021;-79
2021/03/07 08:22:03;;;;;;;231.02;19.90;;;1.30;88.90;;;;;;5054439;28;20028;-79
2021/03/07 08:24:55;;;;;;;213.10;22.08;;;1.30;89.00;;;;;;5053866;28;20373;-79
2021/03/07 08:27:35;;;;;;;46.95;14.63;;;1.30;89.30;;;;;;5053540;28;20106;-79
2021/03/07 08:30:01;;;;;;;62.53;13.73;;;1.30;89.30;;;;;;5037231;28;20037;-79
2021/03/07 08:32:41;;;;;;;143.00;16.88;;;1.30;89.30;;;;;;5034202;28;20047;-80
2021/03/07 08:35:24;;;;;;;102.45;15.35;;;1.40;89.30;;;;;;5053746;28;20506;-80
2021/03/07 08:38:16;;;;;;;64.45;16.73;;;1.50;89.10;;;;;;5037416;28;20400;-84
2021/03/07 08:41:03;;;;;;;61.08;15.02;;;1.50;89.20;;;;;;5054341;28;20037;-77
2021/03/07 08:43:31;;;;;;;58.42;15.27;;;1.50;89.10;;;;;;5054670;28;20040;-77
2021/03/07 08:46:08;;;;;;;31.38;14.05;;;1.60;88.90;;;;;;5052823;28;20049;-77
2021/03/07 08:48:35;;;;;;;55.28;16.85;;;1.70;88.90;;;;;;5053791;28;20040;-76
2021/03/07 08:51:02;;;;;;;45.25;16.25;;;1.70;89.20;;;;;;5053047;28;20060;-77
2021/03/07 08:53:31;;;;;;;32.75;15.07;;;1.80;89.10;;;;;;5054368;28;20112;-76
2021/03/07 08:55:57;;;;;;;42.43;16.17;;;1.90;89.20;;;;;;5053053;28;20497;-77
2021/03/07 08:58:23;;;;;;;25.77;15.15;;;1.90;89.60;;;;;;5036334;28;20137;-76
2021/03/07 09:00:51;;;;;;;24.50;14.35;;;2.00;89.00;;;;;;5034077;28;20445;-77
2021/03/07 09:03:18;;;;;;;32.15;15.90;;;2.10;88.70;;;;;;5051962;28;20021;-77
2021/03/07 09:05:44;;;;;;;30.77;14.40;;;2.20;88.50;;;;;;5032114;28;20037;-77
2021/03/07 09:08:11;;;;;;;23.13;15.55;;;2.40;88.40;;;;;;5035966;28;20028;-77
2021/03/07 09:10:38;;;;;;;26.25;15.10;;;2.50;88.40;;;;;;5052868;28;20037;-77
2021/03/07 09:13:11;;;;;;;33.20;16.17;;;2.70;87.90;;;;;;5053446;28;20036;-77
2021/03/07 09:15:49;;;;;;;58.22;28.92;;;2.70;87.60;;;;;;5052739;28;20021;-77
2021/03/07 09:18:16;;;;;;;34.28;18.42;;;2.70;87.40;;;;;;5054292;28;20102;-77
2021/03/07 09:20:47;;;;;;;26.35;16.42;;;2.70;87.30;;;;;;5036576;28;20025;-77
2021/03/07 09:23:38;;;;;;;27.27;16.67;;;2.70;87.70;;;;;;5052953;28;20028;-77
2021/03/07 09:26:09;;;;;;;30.83;17.77;;;2.70;87.80;;;;;;5052598;28;20025;-78
2021/03/07 09:28:38;;;;;;;35.08;20.55;;;2.80;87.60;;;;;;5052393;28;20032;-78
2021/03/07 09:31:07;;;;;;;29.27;17.85;;;2.80;87.50;;;;;;5052880;28;20115;-79
2021/03/07 09:33:33;;;;;;;35.55;19.75;;;2.90;87.90;;;;;;5054338;28;20021;-80
2021/03/07 09:36:04;;;;;;;36.45;21.45;;;3.10;88.00;;;;;;5053200;28;20036;-78
2021/03/07 09:38:53;;;;;;;36.88;21.00;;;3.30;87.40;;;;;;5053967;28;20187;-78
2021/03/07 09:41:36;;;;;;;44.20;24.13;;;3.40;86.50;;;;;;5053764;28;20579;-77
2021/03/07 09:44:22;;;;;;;35.95;21.05;;;3.50;86.30;;;;;;5050300;28;20041;-79
2021/03/07 09:46:51;;;;;;;43.80;23.88;;;3.70;86.10;;;;;;5035278;28;20135;-79
2021/03/07 09:49:22;;;;;;;37.90;22.17;;;3.80;85.90;;;;;;5053388;28;20025;-77
2021/03/07 09:51:49;;;;;;;30.13;20.08;;;4.00;85.60;;;;;;5053041;28;20033;-77
2021/03/07 09:54:16;;;;;;;26.27;18.30;;;4.20;85.30;;;;;;5052173;28;20072;-78
2021/03/07 09:56:43;;;;;;;38.03;20.25;;;4.40;84.80;;;;;;5052063;28;20040;-80
2021/03/07 09:59:17;;;;;;;24.85;16.83;;;4.60;84.40;;;;;;5040154;28;20489;-79
2021/03/07 10:01:48;;;;;;;29.73;16.67;;;4.70;83.80;;;;;;5053969;28;20060;-80
2021/03/07 10:04:32;;;;;;;27.88;16.02;;;4.70;83.60;;;;;;5055093;28;20041;-79
2021/03/07 10:06:59;;;;;;;24.27;13.95;;;4.90;83.60;;;;;;5052037;28;20036;-79
2021/03/07 10:09:25;;;;;;;23.50;13.85;;;5.00;83.30;;;;;;5051550;28;20032;-80
2021/03/07 10:11:59;;;;;;;19.92;12.77;;;5.20;82.80;;;;;;5050735;28;20027;-80
2021/03/07 10:14:26;;;;;;;19.58;12.60;;;5.30;82.20;;;;;;5050807;28;20095;-80
2021/03/07 10:16:52;;;;;;;24.05;13.25;;;5.40;82.00;;;;;;5035514;28;20052;-80
2021/03/07 10:19:19;;;;;;;21.67;11.82;;;5.50;81.50;;;;;;5050242;28;20052;-77
2021/03/07 10:21:45;;;;;;;17.75;11.48;;;5.50;81.20;;;;;;5065042;28;20041;-78
2021/03/07 10:24:16;;;;;;;19.35;10.60;;;5.50;81.20;;;;;;5052411;28;20048;-78
2021/03/07 10:26:44;;;;;;;14.45;10.07;;;5.60;81.00;;;;;;5053815;28;20025;-78
2021/03/07 10:29:21;;;;;;;17.38;9.57;;;5.70;80.40;;;;;;5052311;28;20504;-78
2021/03/07 10:32:12;;;;;;;16.88;8.82;;;5.80;80.40;;;;;;5052153;28;20028;-77
2021/03/07 10:34:42;;;;;;;16.00;9.85;;;6.10;80.10;;;;;;5052264;28;20063;-78
2021/03/07 10:37:10;;;;;;;15.40;9.18;;;6.30;79.30;;;;;;5052206;28;20489;-78
2021/03/07 10:39:36;;;;;;;13.20;9.13;;;6.50;78.50;;;;;;5035615;28;20036;-77
2021/03/07 10:42:04;;;;;;;12.52;7.90;;;6.70;77.40;;;;;;5053355;28;20024;-78
2021/03/07 10:44:30;;;;;;;13.20;7.40;;;6.80;76.90;;;;;;5051736;28;20041;-78
2021/03/07 10:46:56;;;;;;;7.82;5.93;;;7.10;76.80;;;;;;5035059;28;20099;-78
2021/03/07 10:49:22;;;;;;;7.85;5.40;;;7.30;74.70;;;;;;5051929;28;20037;-78
2021/03/07 10:51:48;;;;;;;7.03;5.10;;;7.40;71.90;;;;;;5035264;28;20040;-78
2021/03/07 10:54:13;;;;;;;8.80;4.97;;;7.30;68.40;;;;;;5035396;28;20040;-77
2021/03/07 10:56:40;;;;;;;10.30;4.90;;;7.10;64.10;;;;;;5034643;28;20390;-78
2021/03/07 10:59:09;;;;;;;10.20;5.05;;;6.90;64.10;;;;;;5051853;28;20537;-78
2021/03/07 11:01:35;;;;;;;7.05;5.15;;;6.90;65.30;;;;;;5052062;28;20021;-78
2021/03/07 11:04:00;;;;;;;8.82;4.47;;;7.00;65.80;;;;;;5035463;28;20056;-78
2021/03/07 11:06:26;;;;;;;7.18;4.60;;;7.10;65.70;;;;;;5035209;28;20074;-78
2021/03/07 11:08:52;;;;;;;5.47;4.50;;;7.30;65.10;;;;;;5052351;28;20033;-78
2021/03/07 11:11:18;;;;;;;6.80;3.83;;;7.50;63.90;;;;;;5035261;28;20031;-78
2021/03/07 11:13:45;;;;;;;7.90;4.10;;;7.60;62.00;;;;;;5053141;28;20052;-78
2021/03/07 11:16:10;;;;;;;5.90;4.22;;;7.80;62.20;;;;;;5051835;28;20025;-78
2021/03/07 11:18:36;;;;;;;7.70;4.90;;;8.00;61.40;;;;;;5051756;28;20033;-78
2021/03/07 11:21:06;;;;;;;7.15;4.60;;;7.90;57.50;;;;;;5053104;28;20029;-77
2021/03/07 11:23:33;;;;;;;;;;;7.60;57.30;;;;;;5036089;28;20029;-77
2021/03/07 11:25:59;;;;;;;5.03;3.30;;;7.30;59.20;;;;;;5051586;28;19954;-78
2021/03/07 11:28:25;;;;;;;5.30;3.50;;;7.20;60.80;;;;;;5037495;28;20033;-78
2021/03/07 11:30:50;;;;;;;5.80;3.10;;;7.10;60.60;;;;;;5039081;28;20028;-77
2021/03/07 11:33:18;;;;;;;8.40;3.95;;;7.30;60.70;;;;;;5055800;28;20419;-78
2021/03/07 11:35:44;;;;;;;6.32;4.68;;;7.50;58.40;;;;;;5039346;28;20439;-78
2021/03/07 11:38:10;;;;;;;7.25;4.57;;;7.60;57.20;;;;;;5055426;28;20029;-78
2021/03/07 11:40:36;;;;;;;7.03;4.90;;;7.50;57.80;;;;;;5055602;28;20115;-78
2021/03/07 11:43:02;;;;;;;8.93;5.40;;;7.40;57.90;;;;;;5055472;28;20044;-78
2021/03/07 11:45:27;;;;;;;8.77;5.80;;;7.30;57.70;;;;;;5055235;28;20501;-78
2021/03/07 11:47:53;;;;;;;9.57;5.88;;;7.20;57.30;;;;;;5055315;28;20029;-77
2021/03/07 11:50:19;;;;;;;8.23;6.30;;;7.20;56.40;;;;;;5038726;28;20029;-78
2021/03/07 11:52:45;;;;;;;6.75;4.90;;;7.20;56.90;;;;;;5038747;28;20021;-77
2021/03/07 11:55:11;;;;;;;6.38;4.53;;;7.40;57.20;;;;;;5056577;28;20108;-78
2021/03/07 11:57:37;;;;;;;5.28;4.38;;;7.70;56.80;;;;;;5054879;28;20032;-78
2021/03/07 12:00:05;;;;;;;6.65;4.68;;;7.80;55.20;;;;;;5055196;28;20029;-79
2021/03/07 12:02:30;;;;;;;7.28;4.20;;;7.90;54.10;;;;;;5055109;28;20017;-79
2021/03/07 12:04:56;;;;;;;5.78;4.28;;;8.10;55.60;;;;;;5055068;28;20079;-79
2021/03/07 12:07:22;;;;;;;8.98;3.72;;;8.40;54.70;;;;;;5038274;28;20037;-78
2021/03/07 12:09:47;;;;;;;6.65;3.92;;;8.40;53.30;;;;;;5038356;28;20033;-78
2021/03/07 12:12:13;;;;;;;5.80;4.00;;;8.30;53.80;;;;;;5038400;28;20040;-77
2021/03/07 12:14:39;;;;;;;7.78;4.28;;;8.30;54.50;;;;;;5055066;28;20028;-77
2021/03/07 12:17:05;;;;;;;7.72;4.07;;;8.20;54.90;;;;;;5054720;28;20029;-77
2021/03/07 12:19:30;;;;;;;7.50;4.07;;;8.30;54.80;;;;;;5038216;28;20025;-77
2021/03/07 12:21:56;;;;;;;5.68;4.07;;;8.50;54.00;;;;;;5037916;28;20386;-77
2021/03/07 12:24:21;;;;;;;6.70;3.90;;;8.50;52.90;;;;;;5021674;28;20075;-77
2021/03/07 12:26:47;;;;;;;5.25;3.45;;;8.60;52.40;;;;;;5055903;28;20040;-77
2021/03/07 12:29:13;;;;;;;6.28;3.72;;;8.60;52.20;;;;;;5054764;28;20626;-77
2021/03/07 12:31:38;;;;;;;5.45;3.67;;;8.60;53.00;;;;;;5054453;28;20473;-77
2021/03/07 12:34:04;;;;;;;7.20;3.63;;;8.70;53.40;;;;;;5054419;28;20119;-77
2021/03/07 12:36:30;;;;;;;7.15;4.10;;;8.80;52.40;;;;;;5054480;28;20083;-77
2021/03/07 12:38:55;;;;;;;8.23;3.67;;;8.80;52.40;;;;;;5053521;28;20397;-77
2021/03/07 12:41:21;;;;;;;5.13;2.95;;;8.70;52.20;;;;;;5054221;28;20025;-77
2021/03/07 12:43:47;;;;;;;5.03;3.40;;;8.70;53.50;;;;;;5055445;28;20025;-77
2021/03/07 12:46:13;;;;;;;3.10;2.80;;;8.80;53.00;;;;;;5037029;28;20045;-77
2021/03/07 12:48:39;;;;;;;7.60;3.17;;;8.90;52.20;;;;;;5037285;28;20033;-77
2021/03/07 12:51:05;;;;;;;3.97;2.95;;;9.00;51.90;;;;;;5054721;28;20469;-77
2021/03/07 12:53:30;;;;;;;8.23;3.30;;;9.10;52.10;;;;;;5053735;28;20481;-77
2021/03/07 12:55:57;;;;;;;4.25;3.30;;;9.10;50.90;;;;;;5055394;28;20029;-79